sensor_id;sensor_type;location;lat;lon;timestamp;temperature;humidity
52859;DHT22;38721;53.098;6.596;2023-04-03T00:02:17;2.10;99.90
52859;DHT22;38721;53.098;6.596;2023-04-03T00:04:42;2.00;99.90
52859;DHT22;38721;53.098;6.596;2023-04-03T00:07:08;2.00;99.90
52859;DHT22;38721;53.098;6.596;2023-04-03T00:09:34;2.00;99.90
52859;DHT22;38721;53.098;6.596;2023-04-03T00:11:59;2.00;99.90
52859;DHT22;38721;53.098;6.596;2023-04-03T00:14:25;2.00;99.90
52859;DHT22;38721;53.098;6.596;2023-04-03T00:16:58;1.90;99.90
52859;DHT22;38721;53.098;6.596;2023-04-03T00:19:24;1.90;99.90
52859;DHT22;38721;53.098;6.596;2023-04-03T00:21:50;1.90;99.90
52859;DHT22;38721;53.098;6.596;2023-04-03T00:24:16;1.90;99.90
52859;DHT22;38721;53.098;6.596;2023-04-03T00:26:41;1.90;99.90
52859;DHT22;38721;53.098;6.596;2023-04-03T00:29:07;1.90;99.90
52859;DHT22;38721;53.098;6.596;2023-04-03T00:31:33;1.80;99.90
52859;DHT22;38721;53.098;6.596;2023-04-03T00:33:59;1.80;99.90
52859;DHT22;38721;53.098;6.596;2023-04-03T00:36:24;1.80;99.90
52859;DHT22;38721;53.098;6.596;2023-04-03T00:38:50;1.80;99.90
52859;DHT22;38721;53.098;6.596;2023-04-03T00:41:16;1.70;99.90
52859;DHT22;38721;53.098;6.596;2023-04-03T00:43:42;1.70;99.90
52859;DHT22;38721;53.098;6.596;2023-04-03T00:46:07;1.70;99.90
52859;DHT22;38721;53.098;6.596;2023-04-03T00:48:42;1.70;1.00
52859;DHT22;38721;53.098;6.596;2023-04-03T00:51:14;1.60;1.00
52859;DHT22;38721;53.098;6.596;2023-04-03T00:53:46;1.60;1.00
52859;DHT22;38721;53.098;6.596;2023-04-03T00:56:15;1.60;99.90
52859;DHT22;38721;53.098;6.596;2023-04-03T00:58:58;1.50;99.90
52859;DHT22;38721;53.098;6.596;2023-04-03T01:01:28;1.50;99.90
52859;DHT22;38721;53.098;6.596;2023-04-03T01:03:54;1.50;99.90
52859;DHT22;38721;53.098;6.596;2023-04-03T01:06:25;1.50;99.90
52859;DHT22;38721;53.098;6.596;2023-04-03T01:08:52;1.40;99.90
52859;DHT22;38721;53.098;6.596;2023-04-03T01:11:21;1.40;1.00
52859;DHT22;38721;53.098;6.596;2023-04-03T01:13:47;1.40;1.00
52859;DHT22;38721;53.098;6.596;2023-04-03T01:16:13;1.30;21.60
52859;DHT22;38721;53.098;6.596;2023-04-03T01:18:40;1.30;99.90
52859;DHT22;38721;53.098;6.596;2023-04-03T01:24:33;1.30;99.90
52859;DHT22;38721;53.098;6.596;2023-04-03T01:27:01;1.30;99.90
52859;DHT22;38721;53.098;6.596;2023-04-03T01:29:28;1.20;99.90
52859;DHT22;38721;53.098;6.596;2023-04-03T01:31:56;1.20;99.90
52859;DHT22;38721;53.098;6.596;2023-04-03T01:34:23;1.20;99.90
52859;DHT22;38721;53.098;6.596;2023-04-03T01:36:50;1.10;99.90
52859;DHT22;38721;53.098;6.596;2023-04-03T01:39:16;1.10;99.90
52859;DHT22;38721;53.098;6.596;2023-04-03T01:41:42;1.10;1.00
52859;DHT22;38721;53.098;6.596;2023-04-03T01:44:08;1.10;1.00
52859;DHT22;38721;53.098;6.596;2023-04-03T01:46:34;1.00;98.00
52859;DHT22;38721;53.098;6.596;2023-04-03T01:49:00;1.00;59.80
52859;DHT22;38721;53.098;6.596;2023-04-03T01:51:25;1.00;99.90
52859;DHT22;38721;53.098;6.596;2023-04-03T01:53:51;0.90;99.90
52859;DHT22;38721;53.098;6.596;2023-04-03T01:56:17;0.90;99.90
52859;DHT22;38721;53.098;6.596;2023-04-03T01:58:42;0.90;99.90
52859;DHT22;38721;53.098;6.596;2023-04-03T02:01:11;0.80;99.90
52859;DHT22;38721;53.098;6.596;2023-04-03T02:03:37;0.80;99.90
52859;DHT22;38721;53.098;6.596;2023-04-03T02:06:02;0.80;99.90
52859;DHT22;38721;53.098;6.596;2023-04-03T02:08:28;0.80;99.90
52859;DHT22;38721;53.098;6.596;2023-04-03T02:10:54;0.80;99.90
52859;DHT22;38721;53.098;6.596;2023-04-03T02:13:20;0.70;99.90
52859;DHT22;38721;53.098;6.596;2023-04-03T02:15:46;0.70;99.90
52859;DHT22;38721;53.098;6.596;2023-04-03T02:18:12;0.70;99.90
52859;DHT22;38721;53.098;6.596;2023-04-03T02:20:37;0.60;99.90
52859;DHT22;38721;53.098;6.596;2023-04-03T02:23:03;0.60;99.90
52859;DHT22;38721;53.098;6.596;2023-04-03T02:25:32;0.60;99.90
52859;DHT22;38721;53.098;6.596;2023-04-03T02:27:58;0.50;99.90
52859;DHT22;38721;53.098;6.596;2023-04-03T02:30:24;0.50;99.90
52859;DHT22;38721;53.098;6.596;2023-04-03T02:32:50;0.50;99.90
52859;DHT22;38721;53.098;6.596;2023-04-03T02:35:16;0.40;99.90
52859;DHT22;38721;53.098;6.596;2023-04-03T02:37:42;0.40;99.90
52859;DHT22;38721;53.098;6.596;2023-04-03T02:40:08;0.40;99.90
52859;DHT22;38721;53.098;6.596;2023-04-03T02:42:34;0.40;99.90
52859;DHT22;38721;53.098;6.596;2023-04-03T02:44:59;0.30;99.90
52859;DHT22;38721;53.098;6.596;2023-04-03T02:47:28;0.30;99.90
52859;DHT22;38721;53.098;6.596;2023-04-03T02:49:54;0.30;99.90
52859;DHT22;38721;53.098;6.596;2023-04-03T02:52:22;0.20;99.90
52859;DHT22;38721;53.098;6.596;2023-04-03T02:54:51;0.20;99.90
52859;DHT22;38721;53.098;6.596;2023-04-03T02:57:16;0.20;99.90
52859;DHT22;38721;53.098;6.596;2023-04-03T02:59:42;0.10;99.90
52859;DHT22;38721;53.098;6.596;2023-04-03T03:02:08;0.20;99.90
52859;DHT22;38721;53.098;6.596;2023-04-03T03:04:35;0.10;99.90
52859;DHT22;38721;53.098;6.596;2023-04-03T03:07:01;0.10;99.90
52859;DHT22;38721;53.098;6.596;2023-04-03T03:09:27;0.00;99.90
52859;DHT22;38721;53.098;6.596;2023-04-03T03:11:53;0.00;99.90
52859;DHT22;38721;53.098;6.596;2023-04-03T03:14:19;-0.10;99.90
52859;DHT22;38721;53.098;6.596;2023-04-03T03:16:44;0.00;99.90
52859;DHT22;38721;53.098;6.596;2023-04-03T03:19:10;0.00;99.90
52859;DHT22;38721;53.098;6.596;2023-04-03T03:21:36;0.00;99.90
52859;DHT22;38721;53.098;6.596;2023-04-03T03:24:02;-0.10;99.90
52859;DHT22;38721;53.098;6.596;2023-04-03T03:26:28;-0.10;99.90
52859;DHT22;38721;53.098;6.596;2023-04-03T03:28:57;-0.20;99.90
52859;DHT22;38721;53.098;6.596;2023-04-03T03:31:23;-0.20;99.90
52859;DHT22;38721;53.098;6.596;2023-04-03T03:33:49;-0.20;99.90
52859;DHT22;38721;53.098;6.596;2023-04-03T03:36:14;-0.30;99.90
52859;DHT22;38721;53.098;6.596;2023-04-03T03:38:40;-0.30;99.90
52859;DHT22;38721;53.098;6.596;2023-04-03T03:41:06;-0.30;99.90
52859;DHT22;38721;53.098;6.596;2023-04-03T03:43:32;-0.40;99.90
52859;DHT22;38721;53.098;6.596;2023-04-03T03:45:57;-0.40;99.90
52859;DHT22;38721;53.098;6.596;2023-04-03T03:48:23;-0.50;99.90
52859;DHT22;38721;53.098;6.596;2023-04-03T03:50:49;-0.40;99.90
52859;DHT22;38721;53.098;6.596;2023-04-03T03:53:15;-0.40;99.90
52859;DHT22;38721;53.098;6.596;2023-04-03T03:55:41;-0.50;99.90
52859;DHT22;38721;53.098;6.596;2023-04-03T03:58:07;-0.50;99.90
52859;DHT22;38721;53.098;6.596;2023-04-03T04:00:32;-0.50;99.90
52859;DHT22;38721;53.098;6.596;2023-04-03T04:02:58;-0.50;99.90
52859;DHT22;38721;53.098;6.596;2023-04-03T04:05:24;-0.50;99.90
52859;DHT22;38721;53.098;6.596;2023-04-03T04:07:50;-0.40;99.90
52859;DHT22;38721;53.098;6.596;2023-04-03T04:10:16;-0.50;99.90
52859;DHT22;38721;53.098;6.596;2023-04-03T04:12:42;-0.40;99.90
52859;DHT22;38721;53.098;6.596;2023-04-03T04:15:08;-0.40;99.90
52859;DHT22;38721;53.098;6.596;2023-04-03T04:17:34;-0.50;99.90
52859;DHT22;38721;53.098;6.596;2023-04-03T04:20:01;-0.50;99.90
52859;DHT22;38721;53.098;6.596;2023-04-03T04:22:28;-0.40;99.90
52859;DHT22;38721;53.098;6.596;2023-04-03T04:24:56;-0.50;99.90
52859;DHT22;38721;53.098;6.596;2023-04-03T04:27:22;-0.50;99.90
52859;DHT22;38721;53.098;6.596;2023-04-03T04:29:48;-0.40;99.90
52859;DHT22;38721;53.098;6.596;2023-04-03T04:32:13;-0.40;99.90
52859;DHT22;38721;53.098;6.596;2023-04-03T04:34:39;-0.50;99.90
52859;DHT22;38721;53.098;6.596;2023-04-03T04:37:05;-0.50;99.90
52859;DHT22;38721;53.098;6.596;2023-04-03T04:39:31;-0.50;99.90
52859;DHT22;38721;53.098;6.596;2023-04-03T04:41:59;-0.60;99.90
52859;DHT22;38721;53.098;6.596;2023-04-03T04:44:25;-0.50;99.90
52859;DHT22;38721;53.098;6.596;2023-04-03T04:46:51;-0.60;99.90
52859;DHT22;38721;53.098;6.596;2023-04-03T04:49:16;-0.60;99.90
52859;DHT22;38721;53.098;6.596;2023-04-03T04:51:42;-0.60;99.90
52859;DHT22;38721;53.098;6.596;2023-04-03T04:54:08;-0.60;99.90
52859;DHT22;38721;53.098;6.596;2023-04-03T04:56:33;-0.60;99.90
52859;DHT22;38721;53.098;6.596;2023-04-03T04:58:59;-0.60;99.90
52859;DHT22;38721;53.098;6.596;2023-04-03T05:01:28;-0.60;99.90
52859;DHT22;38721;53.098;6.596;2023-04-03T05:03:54;-0.60;99.90
52859;DHT22;38721;53.098;6.596;2023-04-03T05:06:20;-0.60;99.90
52859;DHT22;38721;53.098;6.596;2023-04-03T05:08:45;-0.60;99.90
52859;DHT22;38721;53.098;6.596;2023-04-03T05:11:11;-0.60;99.90
52859;DHT22;38721;53.098;6.596;2023-04-03T05:13:37;-0.60;99.90
52859;DHT22;38721;53.098;6.596;2023-04-03T05:16:03;-0.60;99.90
52859;DHT22;38721;53.098;6.596;2023-04-03T05:18:32;-0.70;99.90
52859;DHT22;38721;53.098;6.596;2023-04-03T05:20:57;-0.60;99.90
52859;DHT22;38721;53.098;6.596;2023-04-03T05:23:24;-0.60;99.90
52859;DHT22;38721;53.098;6.596;2023-04-03T05:25:53;-0.60;99.90
52859;DHT22;38721;53.098;6.596;2023-04-03T05:28:19;-0.60;99.90
52859;DHT22;38721;53.098;6.596;2023-04-03T05:30:44;-0.60;99.90
52859;DHT22;38721;53.098;6.596;2023-04-03T05:33:13;-0.50;99.90
52859;DHT22;38721;53.098;6.596;2023-04-03T05:35:39;-0.50;99.90
52859;DHT22;38721;53.098;6.596;2023-04-03T05:38:06;-0.40;99.90
52859;DHT22;38721;53.098;6.596;2023-04-03T05:40:32;-0.40;99.90
52859;DHT22;38721;53.098;6.596;2023-04-03T05:42:58;-0.30;99.90
52859;DHT22;38721;53.098;6.596;2023-04-03T05:45:23;-0.30;99.90
52859;DHT22;38721;53.098;6.596;2023-04-03T05:47:49;-0.30;99.90
52859;DHT22;38721;53.098;6.596;2023-04-03T05:50:15;-0.20;99.90
52859;DHT22;38721;53.098;6.596;2023-04-03T05:52:44;0.00;99.90
52859;DHT22;38721;53.098;6.596;2023-04-03T05:55:11;0.00;99.90
52859;DHT22;38721;53.098;6.596;2023-04-03T05:57:36;0.10;99.90
52859;DHT22;38721;53.098;6.596;2023-04-03T06:00:04;0.20;99.90
52859;DHT22;38721;53.098;6.596;2023-04-03T06:02:33;0.30;99.90
52859;DHT22;38721;53.098;6.596;2023-04-03T06:04:59;0.30;99.90
52859;DHT22;38721;53.098;6.596;2023-04-03T06:07:26;0.40;99.90
52859;DHT22;38721;53.098;6.596;2023-04-03T06:09:55;0.50;99.90
52859;DHT22;38721;53.098;6.596;2023-04-03T06:12:24;0.50;99.90
52859;DHT22;38721;53.098;6.596;2023-04-03T06:14:50;0.60;99.90
52859;DHT22;38721;53.098;6.596;2023-04-03T06:17:16;0.70;99.90
52859;DHT22;38721;53.098;6.596;2023-04-03T06:19:44;0.80;99.90
52859;DHT22;38721;53.098;6.596;2023-04-03T06:22:09;0.90;99.90
52859;DHT22;38721;53.098;6.596;2023-04-03T06:24:40;0.90;99.90
52859;DHT22;38721;53.098;6.596;2023-04-03T06:27:06;0.90;99.90
52859;DHT22;38721;53.098;6.596;2023-04-03T06:29:31;1.00;99.90
52859;DHT22;38721;53.098;6.596;2023-04-03T06:31:57;1.10;99.90
52859;DHT22;38721;53.098;6.596;2023-04-03T06:34:23;1.20;99.90
52859;DHT22;38721;53.098;6.596;2023-04-03T06:36:49;1.20;99.90
52859;DHT22;38721;53.098;6.596;2023-04-03T06:39:18;1.30;99.90
52859;DHT22;38721;53.098;6.596;2023-04-03T06:41:46;1.40;99.90
52859;DHT22;38721;53.098;6.596;2023-04-03T06:44:11;1.50;99.90
52859;DHT22;38721;53.098;6.596;2023-04-03T06:46:39;1.50;99.90
52859;DHT22;38721;53.098;6.596;2023-04-03T06:49:05;1.60;99.90
52859;DHT22;38721;53.098;6.596;2023-04-03T06:51:37;1.70;99.90
52859;DHT22;38721;53.098;6.596;2023-04-03T06:54:04;1.70;99.90
52859;DHT22;38721;53.098;6.596;2023-04-03T06:56:31;1.80;99.90
52859;DHT22;38721;53.098;6.596;2023-04-03T06:58:57;1.90;99.90
52859;DHT22;38721;53.098;6.596;2023-04-03T07:01:25;2.00;99.90
52859;DHT22;38721;53.098;6.596;2023-04-03T07:03:51;2.10;99.90
52859;DHT22;38721;53.098;6.596;2023-04-03T07:06:19;2.10;99.90
52859;DHT22;38721;53.098;6.596;2023-04-03T07:08:46;2.20;99.90
52859;DHT22;38721;53.098;6.596;2023-04-03T07:11:12;2.30;99.90
52859;DHT22;38721;53.098;6.596;2023-04-03T07:13:38;2.40;99.90
52859;DHT22;38721;53.098;6.596;2023-04-03T07:16:08;2.50;99.90
52859;DHT22;38721;53.098;6.596;2023-04-03T07:18:34;2.50;99.90
52859;DHT22;38721;53.098;6.596;2023-04-03T07:21:03;2.60;99.90
52859;DHT22;38721;53.098;6.596;2023-04-03T07:23:29;2.70;99.90
52859;DHT22;38721;53.098;6.596;2023-04-03T07:25:55;2.80;99.90
52859;DHT22;38721;53.098;6.596;2023-04-03T07:28:22;2.80;99.90
52859;DHT22;38721;53.098;6.596;2023-04-03T07:31:00;2.80;99.90
52859;DHT22;38721;53.098;6.596;2023-04-03T07:33:26;2.90;99.90
52859;DHT22;38721;53.098;6.596;2023-04-03T07:35:52;3.00;99.90
52859;DHT22;38721;53.098;6.596;2023-04-03T07:38:18;3.10;99.90
52859;DHT22;38721;53.098;6.596;2023-04-03T07:40:48;3.10;99.90
52859;DHT22;38721;53.098;6.596;2023-04-03T07:43:17;3.20;99.90
52859;DHT22;38721;53.098;6.596;2023-04-03T07:45:43;3.30;99.90
52859;DHT22;38721;53.098;6.596;2023-04-03T07:48:11;3.40;99.90
52859;DHT22;38721;53.098;6.596;2023-04-03T07:50:39;3.40;99.90
52859;DHT22;38721;53.098;6.596;2023-04-03T07:53:05;3.60;99.90
52859;DHT22;38721;53.098;6.596;2023-04-03T07:55:32;3.70;1.00
52859;DHT22;38721;53.098;6.596;2023-04-03T07:58:01;3.80;99.90
52859;DHT22;38721;53.098;6.596;2023-04-03T08:00:27;3.90;99.90
52859;DHT22;38721;53.098;6.596;2023-04-03T08:02:52;3.90;99.90
52859;DHT22;38721;53.098;6.596;2023-04-03T08:05:19;3.90;99.90
52859;DHT22;38721;53.098;6.596;2023-04-03T08:07:45;4.00;65.70
52859;DHT22;38721;53.098;6.596;2023-04-03T08:10:12;4.10;33.80
52859;DHT22;38721;53.098;6.596;2023-04-03T08:12:41;4.20;23.60
52859;DHT22;38721;53.098;6.596;2023-04-03T08:15:07;4.30;1.00
52859;DHT22;38721;53.098;6.596;2023-04-03T08:17:36;4.40;99.90
52859;DHT22;38721;53.098;6.596;2023-04-03T08:20:06;4.40;1.00
52859;DHT22;38721;53.098;6.596;2023-04-03T08:22:35;4.60;99.90
52859;DHT22;38721;53.098;6.596;2023-04-03T08:25:01;4.70;96.60
52859;DHT22;38721;53.098;6.596;2023-04-03T08:27:27;4.70;1.00
52859;DHT22;38721;53.098;6.596;2023-04-03T08:29:54;4.70;73.40
52859;DHT22;38721;53.098;6.596;2023-04-03T08:32:20;4.80;99.90
52859;DHT22;38721;53.098;6.596;2023-04-03T08:34:46;5.00;99.90
52859;DHT22;38721;53.098;6.596;2023-04-03T08:37:12;5.00;99.90
52859;DHT22;38721;53.098;6.596;2023-04-03T08:39:37;5.00;1.00
52859;DHT22;38721;53.098;6.596;2023-04-03T08:47:24;5.40;1.00
52859;DHT22;38721;53.098;6.596;2023-04-03T08:52:46;5.50;99.90
52859;DHT22;38721;53.098;6.596;2023-04-03T08:58:09;5.80;99.90
52859;DHT22;38721;53.098;6.596;2023-04-03T09:03:17;6.00;30.50
52859;DHT22;38721;53.098;6.596;2023-04-03T09:08:37;6.20;99.90
52859;DHT22;38721;53.098;6.596;2023-04-03T09:14:29;6.50;99.90
52859;DHT22;38721;53.098;6.596;2023-04-03T09:22:37;6.80;99.90
52859;DHT22;38721;53.098;6.596;2023-04-03T09:25:12;6.80;99.90
52859;DHT22;38721;53.098;6.596;2023-04-03T09:27:39;6.90;1.00
52859;DHT22;38721;53.098;6.596;2023-04-03T09:30:05;7.00;72.90
52859;DHT22;38721;53.098;6.596;2023-04-03T09:32:34;7.20;1.00
52859;DHT22;38721;53.098;6.596;2023-04-03T09:35:29;7.30;1.00
52859;DHT22;38721;53.098;6.596;2023-04-03T09:40:36;7.40;1.00
52859;DHT22;38721;53.098;6.596;2023-04-03T09:43:26;7.50;99.90
52859;DHT22;38721;53.098;6.596;2023-04-03T09:45:53;7.60;99.90
52859;DHT22;38721;53.098;6.596;2023-04-03T09:48:24;7.70;99.90
52859;DHT22;38721;53.098;6.596;2023-04-03T09:53:45;7.90;99.90
52859;DHT22;38721;53.098;6.596;2023-04-03T10:01:33;8.20;99.90
52859;DHT22;38721;53.098;6.596;2023-04-03T10:06:44;8.30;99.90
52859;DHT22;38721;53.098;6.596;2023-04-03T10:12:10;8.50;99.90
52859;DHT22;38721;53.098;6.596;2023-04-03T10:14:40;8.60;99.90
52859;DHT22;38721;53.098;6.596;2023-04-03T10:20:44;8.60;99.90
52859;DHT22;38721;53.098;6.596;2023-04-03T10:23:37;8.70;97.40
52859;DHT22;38721;53.098;6.596;2023-04-03T10:28:52;8.80;88.80
52859;DHT22;38721;53.098;6.596;2023-04-03T10:31:31;8.90;95.50
52859;DHT22;38721;53.098;6.596;2023-04-03T10:36:57;8.90;14.00
52859;DHT22;38721;53.098;6.596;2023-04-03T10:39:36;8.90;6.90
52859;DHT22;38721;53.098;6.596;2023-04-03T10:42:15;8.90;1.00
52859;DHT22;38721;53.098;6.596;2023-04-03T10:47:32;9.00;1.00
52859;DHT22;38721;53.098;6.596;2023-04-03T10:53:04;9.40;1.00
52859;DHT22;38721;53.098;6.596;2023-04-03T10:55:37;9.30;1.00
52859;DHT22;38721;53.098;6.596;2023-04-03T10:58:06;9.30;1.00
52859;DHT22;38721;53.098;6.596;2023-04-03T11:00:44;9.40;1.00
52859;DHT22;38721;53.098;6.596;2023-04-03T11:03:26;9.60;1.00
52859;DHT22;38721;53.098;6.596;2023-04-03T11:05:53;9.50;1.00
52859;DHT22;38721;53.098;6.596;2023-04-03T11:08:28;9.80;1.00
52859;DHT22;38721;53.098;6.596;2023-04-03T11:11:26;9.80;1.00
52859;DHT22;38721;53.098;6.596;2023-04-03T11:16:28;10.00;1.00
52859;DHT22;38721;53.098;6.596;2023-04-03T11:19:03;9.90;1.00
52859;DHT22;38721;53.098;6.596;2023-04-03T11:21:39;10.30;1.00
52859;DHT22;38721;53.098;6.596;2023-04-03T11:24:16;10.10;1.00
52859;DHT22;38721;53.098;6.596;2023-04-03T11:26:44;10.40;1.00
52859;DHT22;38721;53.098;6.596;2023-04-03T11:29:15;10.40;1.00
52859;DHT22;38721;53.098;6.596;2023-04-03T11:32:09;10.20;1.00
52859;DHT22;38721;53.098;6.596;2023-04-03T11:34:42;10.20;1.00
52859;DHT22;38721;53.098;6.596;2023-04-03T11:39:58;10.30;99.90
52859;DHT22;38721;53.098;6.596;2023-04-03T11:50:48;10.90;99.90
52859;DHT22;38721;53.098;6.596;2023-04-03T11:55:52;10.90;99.90
52859;DHT22;38721;53.098;6.596;2023-04-03T11:58:33;10.90;99.90
52859;DHT22;38721;53.098;6.596;2023-04-03T12:01:00;11.10;99.90
52859;DHT22;38721;53.098;6.596;2023-04-03T12:08:52;11.40;99.90
52859;DHT22;38721;53.098;6.596;2023-04-03T12:11:32;11.40;99.90
52859;DHT22;38721;53.098;6.596;2023-04-03T12:16:41;11.50;99.90
52859;DHT22;38721;53.098;6.596;2023-04-03T12:29:34;12.10;99.90
52859;DHT22;38721;53.098;6.596;2023-04-03T12:32:34;12.00;99.90
52859;DHT22;38721;53.098;6.596;2023-04-03T12:46:19;12.00;99.90
52859;DHT22;38721;53.098;6.596;2023-04-03T12:48:58;12.00;99.90
52859;DHT22;38721;53.098;6.596;2023-04-03T12:51:35;12.10;99.90
52859;DHT22;38721;53.098;6.596;2023-04-03T12:54:12;12.00;99.90
52859;DHT22;38721;53.098;6.596;2023-04-03T12:56:39;12.30;99.90
52859;DHT22;38721;53.098;6.596;2023-04-03T12:59:15;12.30;99.90
52859;DHT22;38721;53.098;6.596;2023-04-03T13:01:43;10.50;99.90
52859;DHT22;38721;53.098;6.596;2023-04-03T13:04:11;11.70;99.90
52859;DHT22;38721;53.098;6.596;2023-04-03T13:06:40;12.20;99.90
52859;DHT22;38721;53.098;6.596;2023-04-03T13:09:14;12.00;99.90
52859;DHT22;38721;53.098;6.596;2023-04-03T13:11:45;12.40;99.90
52859;DHT22;38721;53.098;6.596;2023-04-03T13:14:17;12.70;99.90
52859;DHT22;38721;53.098;6.596;2023-04-03T13:17:11;12.80;99.90
52859;DHT22;38721;53.098;6.596;2023-04-03T13:19:38;12.60;99.90
52859;DHT22;38721;53.098;6.596;2023-04-03T13:22:17;12.60;99.90
52859;DHT22;38721;53.098;6.596;2023-04-03T13:24:46;13.10;99.90
52859;DHT22;38721;53.098;6.596;2023-04-03T13:27:14;13.00;99.90
52859;DHT22;38721;53.098;6.596;2023-04-03T13:29:40;13.00;99.90
52859;DHT22;38721;53.098;6.596;2023-04-03T13:32:06;12.80;99.90
52859;DHT22;38721;53.098;6.596;2023-04-03T13:34:42;13.10;99.90
52859;DHT22;38721;53.098;6.596;2023-04-03T13:37:27;12.90;99.90
52859;DHT22;38721;53.098;6.596;2023-04-03T13:42:26;12.70;99.90
52859;DHT22;38721;53.098;6.596;2023-04-03T13:45:31;13.00;99.90
52859;DHT22;38721;53.098;6.596;2023-04-03T13:48:18;12.30;99.90
52859;DHT22;38721;53.098;6.596;2023-04-03T13:51:23;12.90;99.90
52859;DHT22;38721;53.098;6.596;2023-04-03T13:53:57;13.00;99.90
52859;DHT22;38721;53.098;6.596;2023-04-03T13:56:25;13.00;99.90
52859;DHT22;38721;53.098;6.596;2023-04-03T14:04:30;13.60;99.90
52859;DHT22;38721;53.098;6.596;2023-04-03T14:06:56;14.00;99.90
52859;DHT22;38721;53.098;6.596;2023-04-03T14:09:23;13.70;99.90
52859;DHT22;38721;53.098;6.596;2023-04-03T14:12:00;13.50;99.90
52859;DHT22;38721;53.098;6.596;2023-04-03T14:14:35;13.70;99.90
52859;DHT22;38721;53.098;6.596;2023-04-03T14:17:03;13.50;99.90
52859;DHT22;38721;53.098;6.596;2023-04-03T14:19:36;13.30;99.90
52859;DHT22;38721;53.098;6.596;2023-04-03T14:22:29;14.40;99.90
52859;DHT22;38721;53.098;6.596;2023-04-03T14:24:56;15.70;99.90
52859;DHT22;38721;53.098;6.596;2023-04-03T14:27:26;14.50;99.90
52859;DHT22;38721;53.098;6.596;2023-04-03T14:29:53;16.20;99.90
52859;DHT22;38721;53.098;6.596;2023-04-03T14:32:21;15.80;99.90
52859;DHT22;38721;53.098;6.596;2023-04-03T14:34:47;13.70;99.90
52859;DHT22;38721;53.098;6.596;2023-04-03T14:37:22;13.90;99.90
52859;DHT22;38721;53.098;6.596;2023-04-03T14:39:48;14.20;99.90
52859;DHT22;38721;53.098;6.596;2023-04-03T14:42:18;14.50;99.90
52859;DHT22;38721;53.098;6.596;2023-04-03T14:44:44;14.70;99.90
52859;DHT22;38721;53.098;6.596;2023-04-03T14:47:12;14.80;99.90
52859;DHT22;38721;53.098;6.596;2023-04-03T14:49:39;15.30;99.90
52859;DHT22;38721;53.098;6.596;2023-04-03T14:52:05;15.40;99.90
52859;DHT22;38721;53.098;6.596;2023-04-03T14:54:31;15.90;99.90
52859;DHT22;38721;53.098;6.596;2023-04-03T14:56:58;16.50;99.90
52859;DHT22;38721;53.098;6.596;2023-04-03T14:59:25;16.90;99.90
52859;DHT22;38721;53.098;6.596;2023-04-03T15:01:51;18.50;99.90
52859;DHT22;38721;53.098;6.596;2023-04-03T15:04:19;19.50;99.90
52859;DHT22;38721;53.098;6.596;2023-04-03T15:06:46;19.20;99.90
52859;DHT22;38721;53.098;6.596;2023-04-03T15:09:23;19.20;99.90
52859;DHT22;38721;53.098;6.596;2023-04-03T15:11:50;20.10;99.90
52859;DHT22;38721;53.098;6.596;2023-04-03T15:14:17;19.50;99.90
52859;DHT22;38721;53.098;6.596;2023-04-03T15:16:43;19.10;99.90
52859;DHT22;38721;53.098;6.596;2023-04-03T15:19:09;20.00;99.90
52859;DHT22;38721;53.098;6.596;2023-04-03T15:21:35;20.50;99.90
52859;DHT22;38721;53.098;6.596;2023-04-03T15:24:01;20.40;99.90
52859;DHT22;38721;53.098;6.596;2023-04-03T15:26:27;21.50;99.90
52859;DHT22;38721;53.098;6.596;2023-04-03T15:28:57;21.30;99.90
52859;DHT22;38721;53.098;6.596;2023-04-03T15:31:22;21.10;99.90
52859;DHT22;38721;53.098;6.596;2023-04-03T15:33:48;22.30;99.90
52859;DHT22;38721;53.098;6.596;2023-04-03T15:36:14;22.00;99.90
52859;DHT22;38721;53.098;6.596;2023-04-03T15:38:39;21.60;99.90
52859;DHT22;38721;53.098;6.596;2023-04-03T15:41:05;22.70;99.90
52859;DHT22;38721;53.098;6.596;2023-04-03T15:43:31;21.60;99.90
52859;DHT22;38721;53.098;6.596;2023-04-03T15:46:02;22.70;99.90
52859;DHT22;38721;53.098;6.596;2023-04-03T15:48:28;23.00;99.90
52859;DHT22;38721;53.098;6.596;2023-04-03T15:50:54;22.90;99.90
52859;DHT22;38721;53.098;6.596;2023-04-03T15:53:20;21.80;99.90
52859;DHT22;38721;53.098;6.596;2023-04-03T15:55:46;22.80;99.90
52859;DHT22;38721;53.098;6.596;2023-04-03T15:58:11;22.80;99.90
52859;DHT22;38721;53.098;6.596;2023-04-03T16:00:40;23.30;99.90
52859;DHT22;38721;53.098;6.596;2023-04-03T16:03:11;23.00;99.90
52859;DHT22;38721;53.098;6.596;2023-04-03T16:05:38;23.70;99.90
52859;DHT22;38721;53.098;6.596;2023-04-03T16:08:05;23.50;99.90
52859;DHT22;38721;53.098;6.596;2023-04-03T16:10:35;23.80;99.90
52859;DHT22;38721;53.098;6.596;2023-04-03T16:13:01;23.80;99.90
52859;DHT22;38721;53.098;6.596;2023-04-03T16:15:28;24.00;99.90
52859;DHT22;38721;53.098;6.596;2023-04-03T16:17:54;22.80;97.50
52859;DHT22;38721;53.098;6.596;2023-04-03T16:20:20;23.40;93.80
52859;DHT22;38721;53.098;6.596;2023-04-03T16:22:48;23.90;99.90
52859;DHT22;38721;53.098;6.596;2023-04-03T16:25:13;24.10;97.80
52859;DHT22;38721;53.098;6.596;2023-04-03T16:27:39;23.90;91.30
52859;DHT22;38721;53.098;6.596;2023-04-03T16:30:06;24.10;87.00
52859;DHT22;38721;53.098;6.596;2023-04-03T16:32:32;24.20;79.30
52859;DHT22;38721;53.098;6.596;2023-04-03T16:34:58;23.80;43.80
52859;DHT22;38721;53.098;6.596;2023-04-03T16:37:24;23.40;26.10
52859;DHT22;38721;53.098;6.596;2023-04-03T16:39:51;23.20;6.70
52859;DHT22;38721;53.098;6.596;2023-04-03T16:42:16;23.60;11.60
52859;DHT22;38721;53.098;6.596;2023-04-03T16:44:42;23.50;1.70
52859;DHT22;38721;53.098;6.596;2023-04-03T16:47:08;23.00;1.00
52859;DHT22;38721;53.098;6.596;2023-04-03T16:49:34;23.10;1.00
52859;DHT22;38721;53.098;6.596;2023-04-03T16:52:03;23.80;1.00
52859;DHT22;38721;53.098;6.596;2023-04-03T16:54:30;23.50;1.00
52859;DHT22;38721;53.098;6.596;2023-04-03T16:56:56;23.30;1.00
52859;DHT22;38721;53.098;6.596;2023-04-03T16:59:21;23.10;1.00
52859;DHT22;38721;53.098;6.596;2023-04-03T17:01:47;23.10;1.00
52859;DHT22;38721;53.098;6.596;2023-04-03T17:04:13;22.30;1.00
52859;DHT22;38721;53.098;6.596;2023-04-03T17:06:39;21.80;1.00
52859;DHT22;38721;53.098;6.596;2023-04-03T17:09:05;21.70;1.00
52859;DHT22;38721;53.098;6.596;2023-04-03T17:11:32;22.30;1.00
52859;DHT22;38721;53.098;6.596;2023-04-03T17:13:58;22.80;1.00
52859;DHT22;38721;53.098;6.596;2023-04-03T17:16:25;22.20;1.00
52859;DHT22;38721;53.098;6.596;2023-04-03T17:18:52;22.00;1.00
52859;DHT22;38721;53.098;6.596;2023-04-03T17:21:19;22.50;1.00
52859;DHT22;38721;53.098;6.596;2023-04-03T17:23:50;22.40;1.00
52859;DHT22;38721;53.098;6.596;2023-04-03T17:26:18;20.50;1.00
52859;DHT22;38721;53.098;6.596;2023-04-03T17:28:44;19.80;1.00
52859;DHT22;38721;53.098;6.596;2023-04-03T17:31:09;18.10;99.90
52859;DHT22;38721;53.098;6.596;2023-04-03T17:33:35;17.40;99.90
52859;DHT22;38721;53.098;6.596;2023-04-03T17:36:02;16.00;99.90
52859;DHT22;38721;53.098;6.596;2023-04-03T17:38:30;14.50;99.90
52859;DHT22;38721;53.098;6.596;2023-04-03T17:40:57;16.20;99.90
52859;DHT22;38721;53.098;6.596;2023-04-03T17:43:24;16.10;99.90